Vermillion, Minnesota
Current Conditions -  °F | °C
As of 7:10 AM on Thursday 23 Oct 2014 (Local Time) from KSGS Reporting Station
Overcast Overcast  
Wind Chill: 52°   Ceiling: 800
Heat Index: 52°   Visibility: 10mi
Dew Point: 49°   Wind: 6mph
Humidity: 90%   Direction: 180°S
Pressure: 29.99"   Gusts: NA
Location:  44.67°N, 92.97°W
Report Text: KSGS 231210Z AUTO 18005KT 10SM OVC008 11/10 A2999 RMK AO2 T01110095
Loading
Personal Weather Stations






























Interactive Weather Map
Tropical Storm Tracking
New forecast layout! Learn more

10-Day Weather Forecast

Advertisements
Track Severe Weather on mobile